Flight Track Log - Related Links

Times and Time Zones

All times are in EDT time to prevent confusion due to time zone crossing. See the SWA756 flight status page for this flight to view local times or setup timezone preferences in your user account.

Time Position Orientation Groundspeed Altitude Reporting Facility
EDT Latitude Longitude Course Direction KTS MPH feet Rate Location/Type
Fri 02:40:37 PM 37.7619 -122.3408 296° West 213 245 4,700  Level Oakland Center
Fri 02:41:38 PM 37.7175 -122.3992 226° Southwest 241 277 8,200 3,220 Climbing Oakland Center
Fri 02:42:40 PM 37.6342 -122.4703 214° Southwest 301 346 11,300 3,122 Climbing Oakland Center
Fri 02:43:41 PM 37.5497 -122.5381 212° Southwest 354 407 14,600 3,122 Climbing Oakland Center
Fri 02:44:43 PM 37.4464 -122.5489 185° South 375 432 17,700 3,073 Climbing Oakland Center
Fri 02:45:44 PM 37.3375 -122.5542 182° South 390 449 20,900 2,780 Climbing Oakland Center
Fri 02:46:46 PM 37.2250 -122.5589 182° South 401 461 23,400 2,323 Climbing Oakland Center
Fri 02:47:48 PM 37.1061 -122.5658 183° South 425 489 25,700 2,195 Climbing Oakland Center
Fri 02:48:49 PM 36.9931 -122.5169 161° South 447 514 27,900 2,000 Climbing Oakland Center
Fri 02:49:51 PM 36.8994 -122.4114 138° Southeast 454 522 29,800 1,951 Climbing Oakland Center
Fri 02:50:52 PM 36.7814 -122.2844 139° Southeast 468 539 31,900 2,000 Climbing Oakland Center
Fri 02:51:54 PM 36.6836 -122.1794 139° Southeast 467 537 33,900 1,902 Climbing Oakland Center
Fri 02:52:55 PM 36.5853 -122.0747 139° Southeast 465 535 35,800 1,805 Climbing Oakland Center
Fri 02:53:57 PM 36.4894 -121.9694 139° Southeast 462 532 37,600 1,561 Climbing Oakland Center
Fri 02:54:58 PM 36.3947 -121.8700 140° Southeast 451 519 39,000 683 Climbing Oakland Center
Fri 02:56:00 PM 36.2878 -121.7542 139° Southeast 448 516 39,000  Level Oakland Center
Fri 02:57:01 PM 36.1925 -121.6536 140° Southeast 450 518 39,000  Level Oakland Center
Fri 02:58:03 PM 36.1108 -121.5369 131° Southeast 449 517 39,000  Level Oakland Center
Fri 02:59:05 PM 36.0314 -121.4172 129° Southeast 450 518 39,000  Level Oakland Center
Fri 03:00:07 PM 35.9511 -121.3000 130° Southeast 448 516 39,000  Level Oakland Center
Fri 03:01:08 PM 35.8722 -121.1817 129° Southeast 448 516 39,000  Level Oakland Center
Fri 03:02:10 PM 35.7911 -121.0658 131° Southeast 447 514 39,000  Level Oakland Center
Fri 03:03:11 PM 35.6967 -120.9247 129° Southeast 446 513 39,000  Level Oakland Center
Fri 03:04:13 PM 35.6178 -120.8089 130° Southeast 444 511 39,000  Level Oakland Center
Fri 03:05:14 PM 35.5383 -120.6928 130° Southeast 445 512 39,000  Level Oakland Center
Fri 03:06:16 PM 35.4572 -120.5803 131° Southeast 444 511 39,000  Level Oakland Center
Fri 03:07:18 PM 35.3722 -120.4575 130° Southeast 446 513 39,000  Level Oakland Center
Fri 03:08:15 PM 35.2961 -120.3386 128° Southeast 443 510 39,000  Level Los Angeles Center
Fri 03:09:17 PM 35.2250 -120.2400 131° Southeast 447 514 39,000  Level Los Angeles Center
Fri 03:10:19 PM 35.1306 -120.1047 130° Southeast 442 509 39,000  Level Los Angeles Center
Fri 03:11:22 PM 35.0514 -119.9903 130° Southeast 442 509 39,000  Level Los Angeles Center
Fri 03:12:24 PM 34.9711 -119.8767 131° Southeast 443 510 39,000  Level Los Angeles Center
Fri 03:13:26 PM 34.8911 -119.7628 131° Southeast 442 509 39,000  Level Los Angeles Center
Fri 03:14:28 PM 34.8108 -119.6494 131° Southeast 442 509 39,000  Level Los Angeles Center
Fri 03:15:30 PM 34.7139 -119.5136 131° Southeast 443 510 39,000  Level Los Angeles Center
Fri 03:16:32 PM 34.6333 -119.4031 132° Southeast 440 506 39,000  Level Los Angeles Center
Fri 03:17:34 PM 34.5581 -119.2964 131° Southeast 440 506 39,000  Level Los Angeles Center
Fri 03:18:36 PM 34.4786 -119.1853 131° Southeast 438 504 39,000  Level Los Angeles Center
Fri 03:19:38 PM 34.3819 -119.0506 131° Southeast 441 507 39,000  Level Los Angeles Center
Fri 03:20:41 PM 34.3019 -118.9392 131° Southeast 441 507 39,000  Level Los Angeles Center
Fri 03:21:43 PM 34.2203 -118.8264 131° Southeast 443 510 39,000  Level Los Angeles Center
Fri 03:22:45 PM 34.1383 -118.7136 131° Southeast 445 512 39,000  Level Los Angeles Center
Fri 03:23:47 PM 34.0553 -118.6006 132° Southeast 449 517 39,000 -919 Level Los Angeles Center
Fri 03:24:49 PM 33.9736 -118.4878 131° Southeast 446 513 37,100 -2,226 Descending Los Angeles Center
Fri 03:25:51 PM 33.8911 -118.3744 131° Southeast 446 513 34,400 -2,952 Descending Los Angeles Center
Fri 03:26:53 PM 33.7786 -118.2394 135° Southeast 465 535 31,000 -2,806 Descending Los Angeles Center
Fri 03:27:55 PM 33.6939 -118.1261 132° Southeast 446 513 28,600 -2,208 Descending Los Angeles Center
Fri 03:28:58 PM 33.6114 -118.0208 133° Southeast 432 497 26,400 -2,016 Descending Los Angeles Center
Fri 03:30:00 PM 33.5311 -117.9206 134° Southeast 417 480 24,400 -2,032 Descending Los Angeles Center
Fri 03:31:02 PM 33.4528 -117.8222 134° Southeast 409 471 22,200 -2,081 Descending Los Angeles Center
Fri 03:32:04 PM 33.3769 -117.7269 134° Southeast 397 457 20,100 -2,032 Descending Los Angeles Center
Fri 03:33:06 PM 33.3036 -117.6347 134° Southeast 386 444 18,000 -2,226 Descending Los Angeles Center
Fri 03:34:08 PM 33.2144 -117.5336 136° Southeast 370 426 15,500 -1,597 Descending Los Angeles Center
Fri 03:35:10 PM 33.1353 -117.4689 146° Southeast 350 403 14,700 -1,403 Descending Los Angeles Center
Fri 03:36:12 PM 33.0647 -117.4103 145° Southeast 316 364 12,600 -1,824 Descending Los Angeles Center
Fri 03:37:15 PM 32.9933 -117.3539 146° Southeast 309 356 10,900 -1,651 Descending Los Angeles Center
Fri 03:38:01 PM 32.9333 -117.3000 143° Southeast 277 319 9,600 -1,642 Descending Southern California TRACON
Fri 03:39:01 PM 32.8833 -117.2333 132° Southeast 277 319 8,000 -1,300 Descending Southern California TRACON
Fri 03:40:01 PM 32.8333 -117.1667 132° Southeast 270 311 7,000 -750 Descending Southern California TRACON
Fri 03:40:21 PM 32.8192 -117.1547 145° Southeast 266 306 7,000 -492 Level Los Angeles Center
Fri 03:41:02 PM 32.8000 -117.1167 121° Southeast 218 251 6,500 -1,137 Descending Southern California TRACON
Fri 03:41:56 PM 32.7833 -117.0500 107° East 222 255 5,200 -900 Descending Southern California TRACON
Fri 03:43:02 PM 32.7667 -116.9833 107° East 198 228 4,700 -762 Descending Southern California TRACON
Fri 03:44:02 PM 32.7167 -116.9833 180° South 202 232 3,600 -1,000 Descending Southern California TRACON
Fri 03:45:02 PM 32.7000 -117.0333 248° West 187 215 2,700 -900 Descending Southern California TRACON
Fri 03:46:02 PM 32.7167 -117.0833 292° West 170 196 1,800 -900 Descending Southern California TRACON
Fri 03:47:02 PM 32.7167 -117.1333 270° West 135 155 900 -766 Descending Southern California TRACON
Fri 03:47:36 PM 32.7244 -117.1497 299° West 146 168 600 -500 Descending Los Angeles Center
Fri 03:48:38 PM 32.7372 -117.1981 287° West 139 160 100 -484 Descending Los Angeles Center

Login

Don't have an account? Register now (free) for customized features, flight alerts, and more!